createdAt,value
2023-03-05T00:01:52.796Z,98537.73
2023-03-05T00:04:59.130Z,98536.98
2023-03-05T00:08:03.668Z,98539.67
2023-03-05T00:11:12.928Z,98542.66
2023-03-05T00:14:19.098Z,98542.25
2023-03-05T00:17:25.258Z,98539.63
2023-03-05T00:20:31.470Z,98538.22
2023-03-05T00:23:37.764Z,98533.02
2023-03-05T00:26:42.364Z,98533.65
2023-03-05T00:29:48.624Z,98530.83
2023-03-05T00:32:54.988Z,98531.05
2023-03-05T00:36:02.533Z,98528.17
2023-03-05T00:39:08.887Z,98520.56
2023-03-05T00:42:13.386Z,98514.59
2023-03-05T00:45:19.810Z,98512.05
2023-03-05T00:48:25.697Z,98511.14
2023-03-05T00:51:30.315Z,98510.08
2023-03-05T00:54:36.591Z,98511.29
2023-03-05T00:57:42.804Z,98507.96
2023-03-05T01:00:50.739Z,98506.51
2023-03-05T01:03:59.430Z,98508.77
2023-03-05T01:07:06.116Z,98506.48
2023-03-05T01:10:13.963Z,98503.87
2023-03-05T01:13:20.457Z,98502.39
2023-03-05T01:16:26.740Z,98506.08
2023-03-05T01:19:31.519Z,98506.47
2023-03-05T01:22:37.754Z,98502.70
2023-03-05T01:25:44.208Z,98501.07
2023-03-05T01:28:50.398Z,98499.06
2023-03-05T01:31:56.573Z,98497.93
2023-03-05T01:35:03.526Z,98501.58
2023-03-05T01:38:09.745Z,98497.79
2023-03-05T01:41:17.591Z,98501.52
2023-03-05T01:44:29.846Z,98500.97
2023-03-05T01:47:36.274Z,98493.73
2023-03-05T01:50:42.500Z,98494.05
2023-03-05T01:53:49.867Z,98494.29
2023-03-05T01:56:58.561Z,98494.42
2023-03-05T02:00:07.792Z,98493.82
2023-03-05T02:03:14.778Z,98496.27
2023-03-05T02:06:20.820Z,98497.90
2023-03-05T02:09:28.747Z,98500.34
2023-03-05T02:12:35.189Z,98494.36
2023-03-05T02:15:41.837Z,98492.08
2023-03-05T02:18:48.124Z,98491.33
2023-03-05T02:21:54.388Z,98490.30
2023-03-05T02:24:58.917Z,98487.86
2023-03-05T02:28:09.457Z,98484.87
2023-03-05T02:31:19.117Z,98479.98
2023-03-05T02:34:25.436Z,98479.01
2023-03-05T02:37:31.753Z,98482.73
2023-03-05T02:40:36.240Z,98481.45
2023-03-05T02:43:42.631Z,98482.14
2023-03-05T02:46:47.143Z,98483.23
2023-03-05T02:49:53.559Z,98483.26
2023-03-05T02:52:59.785Z,98483.47
2023-03-05T02:56:07.297Z,98483.30
2023-03-05T02:59:13.588Z,98482.06
2023-03-05T03:02:19.933Z,98483.34
2023-03-05T03:05:24.717Z,98487.58
2023-03-05T03:08:30.925Z,98487.69
2023-03-05T03:11:37.178Z,98484.41
2023-03-05T03:14:44.515Z,98483.61
2023-03-05T03:17:51.030Z,98484.23
2023-03-05T03:20:57.338Z,98480.77
2023-03-05T03:24:01.951Z,98476.02
2023-03-05T03:27:08.525Z,98475.30
2023-03-05T03:30:16.729Z,98473.84
2023-03-05T03:33:22.988Z,98471.52
2023-03-05T03:36:29.306Z,98469.07
2023-03-05T03:39:33.768Z,98466.93
2023-03-05T03:42:40.029Z,98469.87
2023-03-05T03:45:46.623Z,98471.98
2023-03-05T03:48:54.420Z,98468.43
2023-03-05T03:52:00.703Z,98463.97
2023-03-05T03:55:07.911Z,98459.73
2023-03-05T03:58:14.201Z,98457.59
2023-03-05T04:01:18.677Z,98457.26
2023-03-05T04:04:26.718Z,98451.99
2023-03-05T04:07:33.079Z,98452.52
2023-03-05T04:10:39.308Z,98445.63
2023-03-05T04:13:45.603Z,98443.04
2023-03-05T04:16:50.467Z,98442.61
2023-03-05T04:19:56.667Z,98439.23
2023-03-05T04:23:02.944Z,98432.52
2023-03-05T04:26:09.795Z,98426.31
2023-03-05T04:29:15.983Z,98424.36
2023-03-05T04:32:23.362Z,98427.19
2023-03-05T04:35:29.680Z,98421.23
2023-03-05T04:38:35.879Z,98417.19
2023-03-05T04:41:42.069Z,98417.83
2023-03-05T04:44:48.559Z,98417.77
2023-03-05T04:47:54.909Z,98417.63
2023-03-05T04:50:59.429Z,98414.01
2023-03-05T04:54:05.682Z,98409.07
2023-03-05T04:57:11.916Z,98409.15
2023-03-05T05:00:20.585Z,98408.66
2023-03-05T05:03:26.917Z,98405.89
2023-03-05T05:06:31.280Z,98404.91
2023-03-05T05:09:37.500Z,98409.91
2023-03-05T05:12:44.025Z,98406.77
2023-03-05T05:15:50.257Z,98406.33
2023-03-05T05:18:56.771Z,98408.39
2023-03-05T05:22:03.692Z,98412.52
2023-03-05T05:25:11.562Z,98416.17
2023-03-05T05:28:17.829Z,98413.08
2023-03-05T05:31:24.105Z,98410.23
2023-03-05T05:34:28.610Z,98405.69
2023-03-05T05:37:34.982Z,98403.65
2023-03-05T05:40:39.766Z,98402.92
2023-03-05T05:43:46.050Z,98407.14
2023-03-05T05:46:52.376Z,98402.21
2023-03-05T05:49:56.893Z,98402.95
2023-03-05T05:53:03.092Z,98404.85
2023-03-05T05:56:10.910Z,98395.90
2023-03-05T05:59:17.160Z,98397.14
2023-03-05T06:02:23.518Z,98396.05
2023-03-05T06:05:29.949Z,98391.73
2023-03-05T06:08:34.449Z,98389.75
2023-03-05T06:11:40.764Z,98388.66
2023-03-05T06:14:45.281Z,98387.75
2023-03-05T06:17:52.854Z,98386.03
2023-03-05T06:21:00.038Z,98386.14
2023-03-05T06:24:07.063Z,98386.38
2023-03-05T06:27:13.217Z,98380.22
2023-03-05T06:30:19.951Z,98383.82
2023-03-05T06:33:26.220Z,98388.77
2023-03-05T06:36:33.869Z,98390.05
2023-03-05T06:39:40.120Z,98389.55
2023-03-05T06:42:46.344Z,98390.92
2023-03-05T06:46:02.321Z,98387.06
2023-03-05T06:49:09.649Z,98389.95
2023-03-05T06:52:15.937Z,98390.55
2023-03-05T06:55:22.595Z,98397.63
2023-03-05T06:58:28.862Z,98408.01
2023-03-05T07:01:35.792Z,98411.86
2023-03-05T07:04:42.116Z,98416.13
2023-03-05T07:07:48.212Z,98415.54
2023-03-05T07:10:54.401Z,98415.61
2023-03-05T07:14:00.699Z,98416.60
2023-03-05T07:17:06.202Z,98415.77
2023-03-05T07:20:14.286Z,98408.77
2023-03-05T07:23:20.577Z,98404.83
2023-03-05T07:26:25.552Z,98402.27
2023-03-05T07:29:31.779Z,98403.95
2023-03-05T07:32:39.325Z,98394.73
2023-03-05T07:35:45.702Z,98393.34
2023-03-05T07:38:50.326Z,98390.67
2023-03-05T07:41:56.545Z,98395.74
2023-03-05T07:45:02.765Z,98387.56
2023-03-05T07:48:10.507Z,98388.26
2023-03-05T07:51:18.923Z,98389.21
2023-03-05T07:54:25.117Z,98388.93
2023-03-05T07:57:31.360Z,98384.18
2023-03-05T08:00:35.829Z,98380.73
2023-03-05T08:03:42.167Z,98376.98
2023-03-05T08:06:47.127Z,98374.04
2023-03-05T08:09:53.361Z,98370.43
2023-03-05T08:12:59.485Z,98366.33
2023-03-05T08:16:10.652Z,98363.83
2023-03-05T08:19:16.869Z,98356.63
2023-03-05T08:22:23.185Z,98351.58
2023-03-05T08:25:27.701Z,98344.64
2023-03-05T08:28:34.523Z,98342.13
2023-03-05T08:31:41.480Z,98339.47
2023-03-05T08:34:47.777Z,98337.58
2023-03-05T08:37:52.357Z,98334.50
2023-03-05T08:40:58.665Z,98334.85
2023-03-05T08:44:03.889Z,98335.46
2023-03-05T08:47:10.294Z,98334.80
2023-03-05T08:50:14.965Z,98331.04
2023-03-05T08:53:21.357Z,98327.38
2023-03-05T08:56:27.671Z,98322.69
2023-03-05T08:59:33.950Z,98313.45
2023-03-05T09:02:40.489Z,98307.73
2023-03-05T09:05:46.898Z,98307.27
2023-03-05T09:08:51.544Z,98301.75
2023-03-05T09:11:58.774Z,98292.54
2023-03-05T09:15:05.079Z,98285.14
2023-03-05T09:18:10.299Z,98287.98
2023-03-05T09:21:19.123Z,98287.93
2023-03-05T09:24:25.326Z,98286.61
2023-03-05T09:27:33.929Z,98287.38
2023-03-05T09:30:40.474Z,98285.29
2023-03-05T09:33:46.663Z,98279.45
2023-03-05T09:36:53.133Z,98278.12
2023-03-05T09:40:00.047Z,98278.65
2023-03-05T09:43:18.565Z,98282.82
2023-03-05T09:46:39.184Z,98282.34
2023-03-05T09:49:53.231Z,98277.95
2023-03-05T09:53:04.347Z,98273.73
2023-03-05T09:56:15.597Z,98270.75
2023-03-05T09:59:30.906Z,98270.89
2023-03-05T10:02:39.251Z,98268.20
2023-03-05T10:05:57.465Z,98265.52
2023-03-05T10:09:12.416Z,98258.23
2023-03-05T10:12:28.041Z,98251.85
2023-03-05T10:15:44.482Z,98248.48
2023-03-05T10:18:58.229Z,98241.95
2023-03-05T10:22:15.856Z,98240.46
2023-03-05T10:25:27.970Z,98238.48
2023-03-05T10:28:43.222Z,98237.64
2023-03-05T10:31:59.379Z,98234.13
2023-03-05T10:35:41.776Z,98230.29
2023-03-05T10:39:06.684Z,98225.77
2023-03-05T10:42:23.397Z,98216.48
2023-03-05T10:45:33.325Z,98214.39
2023-03-05T10:48:44.196Z,98213.92
2023-03-05T10:52:00.000Z,98216.59
2023-03-05T10:55:13.588Z,98212.80
2023-03-05T10:58:20.422Z,98207.42
2023-03-05T11:01:28.997Z,98213.98
2023-03-05T11:04:38.766Z,98208.73
2023-03-05T11:07:45.164Z,98203.75
2023-03-05T11:10:49.718Z,98204.86
2023-03-05T11:14:00.253Z,98200.91
2023-03-05T11:17:29.024Z,98202.38
2023-03-05T11:20:37.361Z,98203.52
2023-03-05T11:23:43.619Z,98197.95
2023-03-05T11:26:52.363Z,98193.17
2023-03-05T11:29:59.039Z,98198.25
2023-03-05T11:33:16.335Z,98196.41
2023-03-05T11:36:28.394Z,98193.77
2023-03-05T11:39:38.593Z,98188.61
2023-03-05T11:42:45.461Z,98181.65
2023-03-05T11:45:55.133Z,98178.02
2023-03-05T11:49:01.794Z,98172.55
2023-03-05T11:52:14.139Z,98166.70
2023-03-05T11:55:22.533Z,98162.80
2023-03-05T11:58:33.845Z,98163.73
2023-03-05T12:01:46.408Z,98162.01
2023-03-05T12:04:54.036Z,98161.30
2023-03-05T12:08:03.233Z,98157.49
2023-03-05T12:11:16.227Z,98149.70
2023-03-05T12:14:30.340Z,98150.46
2023-03-05T12:17:42.262Z,98148.80
2023-03-05T12:20:55.472Z,98147.83
2023-03-05T12:24:04.091Z,98148.12
2023-03-05T12:27:17.269Z,98144.34
2023-03-05T12:30:57.810Z,98141.29
2023-03-05T12:34:53.005Z,98147.80
2023-03-05T12:38:30.414Z,98167.60
2023-03-05T12:41:38.478Z,98181.27
2023-03-05T12:44:44.747Z,98183.48
2023-03-05T12:48:12.276Z,98183.27
2023-03-05T12:51:32.392Z,98183.65
2023-03-05T12:54:40.827Z,98184.00
2023-03-05T12:57:51.008Z,98182.59
2023-03-05T13:01:04.489Z,98181.58
2023-03-05T13:04:19.948Z,98178.86
2023-03-05T13:07:26.172Z,98181.91
2023-03-05T13:10:32.568Z,98178.17
2023-03-05T13:13:43.829Z,98174.92
2023-03-05T13:16:50.615Z,98176.90
2023-03-05T13:19:56.994Z,98178.98
2023-03-05T13:23:23.890Z,98174.89
2023-03-05T13:26:31.349Z,98176.30
2023-03-05T13:29:51.611Z,98171.88
2023-03-05T13:33:02.955Z,98168.70
2023-03-05T13:36:16.542Z,98169.17
2023-03-05T13:39:27.302Z,98166.42
2023-03-05T13:42:35.089Z,98165.73
2023-03-05T13:45:41.477Z,98161.02
2023-03-05T13:48:46.053Z,98164.98
2023-03-05T13:51:53.497Z,98160.50
2023-03-05T13:55:00.773Z,98154.98
2023-03-05T13:58:07.096Z,98151.55
2023-03-05T14:01:14.921Z,98147.21
2023-03-05T14:04:26.582Z,98144.74
2023-03-05T14:07:39.885Z,98140.90
2023-03-05T14:10:47.132Z,98137.23
2023-03-05T14:14:06.760Z,98128.48
2023-03-05T14:17:39.033Z,98128.70
2023-03-05T14:21:03.325Z,98124.73
2023-03-05T14:24:21.632Z,98122.67
2023-03-05T14:27:29.754Z,98118.71
2023-03-05T14:30:36.604Z,98114.69
2023-03-05T14:33:43.588Z,98115.54
2023-03-05T14:36:52.884Z,98112.14
2023-03-05T14:40:05.397Z,98111.45
2023-03-05T14:43:13.646Z,98107.90
2023-03-05T14:46:20.030Z,98110.95
2023-03-05T14:49:26.364Z,98112.37
2023-03-05T14:52:33.070Z,98112.77
2023-03-05T14:55:42.876Z,98107.85
2023-03-05T14:58:49.166Z,98100.73
2023-03-05T15:01:55.518Z,98109.20
2023-03-05T15:05:01.283Z,98111.52
2023-03-05T15:08:13.868Z,98105.31
2023-03-05T15:11:22.801Z,98104.83
2023-03-05T15:14:28.981Z,98086.64
2023-03-05T15:17:38.160Z,98090.05
2023-03-05T15:20:45.164Z,98099.67
2023-03-05T15:23:51.436Z,98093.42
2023-03-05T15:26:57.673Z,98095.91
2023-03-05T15:30:04.371Z,98091.28
2023-03-05T15:33:12.542Z,98083.30
2023-03-05T15:36:18.741Z,98085.31
2023-03-05T15:39:26.423Z,98089.37
2023-03-05T15:42:32.692Z,98088.70
2023-03-05T15:45:39.029Z,98084.83
2023-03-05T15:48:49.896Z,98085.15
2023-03-05T15:51:57.047Z,98085.43
2023-03-05T15:55:04.913Z,98084.71
2023-03-05T15:58:11.127Z,98085.55
2023-03-05T16:01:19.481Z,98089.52
2023-03-05T16:04:25.874Z,98090.92
2023-03-05T16:07:32.809Z,98086.98
2023-03-05T16:10:40.999Z,98083.46
2023-03-05T16:13:47.290Z,98083.77
2023-03-05T16:16:52.213Z,98085.84
2023-03-05T16:19:58.933Z,98086.33
2023-03-05T16:23:05.525Z,98086.36
2023-03-05T16:26:12.688Z,98079.69
2023-03-05T16:29:18.900Z,98080.98
2023-03-05T16:32:25.222Z,98078.05
2023-03-05T16:35:29.993Z,98073.52
2023-03-05T16:38:36.401Z,98067.18
2023-03-05T16:41:41.116Z,98070.34
2023-03-05T16:44:48.294Z,98070.14
2023-03-05T16:47:54.812Z,98068.02
2023-03-05T16:51:02.240Z,98065.77
2023-03-05T16:54:10.152Z,98069.73
2023-03-05T16:57:16.813Z,98066.13
2023-03-05T17:00:24.872Z,98067.89
2023-03-05T17:03:31.390Z,98073.36
2023-03-05T17:06:37.675Z,98078.34
2023-03-05T17:09:44.624Z,98083.60
2023-03-05T17:12:52.848Z,98082.83
2023-03-05T17:15:59.106Z,98076.92
2023-03-05T17:19:03.728Z,98080.27
2023-03-05T17:22:12.866Z,98085.00
2023-03-05T17:25:19.506Z,98085.96
2023-03-05T17:28:26.723Z,98078.85
2023-03-05T17:31:33.227Z,98077.33
2023-03-05T17:34:39.882Z,98079.04
2023-03-05T17:37:46.196Z,98082.03
2023-03-05T17:40:51.393Z,98079.54
2023-03-05T17:43:57.622Z,98076.13
2023-03-05T17:47:03.973Z,98070.33
2023-03-05T17:50:09.746Z,98067.58
2023-03-05T17:53:15.989Z,98065.30
2023-03-05T17:56:22.299Z,98070.58
2023-03-05T17:59:27.209Z,98066.89
2023-03-05T18:02:33.674Z,98066.45
2023-03-05T18:05:41.042Z,98068.64
2023-03-05T18:08:47.302Z,98075.46
2023-03-05T18:11:53.566Z,98079.67
2023-03-05T18:15:00.015Z,98082.36
2023-03-05T18:18:07.460Z,98086.94
2023-03-05T18:21:14.459Z,98093.90
2023-03-05T18:24:20.659Z,98096.76
2023-03-05T18:27:27.075Z,98097.06
2023-03-05T18:30:33.962Z,98097.83
2023-03-05T18:33:40.203Z,98098.89
2023-03-05T18:36:46.506Z,98099.59
2023-03-05T18:39:51.018Z,98099.59
2023-03-05T18:43:00.266Z,98102.95
2023-03-05T18:46:08.276Z,98103.36
2023-03-05T18:49:14.558Z,98103.29
2023-03-05T18:52:20.771Z,98099.61
2023-03-05T18:55:29.310Z,98102.16
2023-03-05T18:58:35.360Z,98103.41
2023-03-05T19:01:41.611Z,98099.80
2023-03-05T19:04:47.916Z,98100.30
2023-03-05T19:07:52.524Z,98102.51
2023-03-05T19:10:58.765Z,98105.29
2023-03-05T19:14:05.572Z,98105.27
2023-03-05T19:17:12.176Z,98105.41
2023-03-05T19:20:19.233Z,98104.79
2023-03-05T19:23:25.536Z,98105.34
2023-03-05T19:26:30.069Z,98108.69
2023-03-05T19:29:37.709Z,98108.34
2023-03-05T19:32:47.266Z,98111.13
2023-03-05T19:35:53.669Z,98108.20
2023-03-05T19:39:00.255Z,98106.02
2023-03-05T19:42:07.694Z,98109.16
2023-03-05T19:45:14.792Z,98107.21
2023-03-05T19:48:21.051Z,98105.55
2023-03-05T19:51:28.648Z,98103.98
2023-03-05T19:54:35.158Z,98107.79
2023-03-05T19:57:41.355Z,98105.59
2023-03-05T20:00:47.926Z,98104.42
2023-03-05T20:03:56.218Z,98107.17
2023-03-05T20:07:03.808Z,98105.86
2023-03-05T20:10:11.995Z,98106.85
2023-03-05T20:13:18.236Z,98108.62
2023-03-05T20:16:26.925Z,98109.12
2023-03-05T20:19:33.323Z,98103.84
2023-03-05T20:22:38.013Z,98096.27
2023-03-05T20:25:44.442Z,98097.16
2023-03-05T20:28:49.186Z,98093.77
2023-03-05T20:31:56.990Z,98091.11
2023-03-05T20:35:03.245Z,98088.69
2023-03-05T20:38:20.973Z,98086.02
2023-03-05T20:41:27.133Z,98082.67
2023-03-05T20:44:33.378Z,98078.44
2023-03-05T20:47:41.008Z,98081.17
2023-03-05T20:50:48.016Z,98074.86
2023-03-05T20:53:58.221Z,98074.70
2023-03-05T20:57:04.492Z,98066.25
2023-03-05T21:00:13.721Z,98064.69
2023-03-05T21:03:20.020Z,98066.77
2023-03-05T21:06:25.020Z,98072.77
2023-03-05T21:09:31.514Z,98068.71
2023-03-05T21:12:37.814Z,98062.52
2023-03-05T21:15:42.526Z,98061.88
2023-03-05T21:18:48.852Z,98057.26
2023-03-05T21:21:53.386Z,98056.80
2023-03-05T21:25:04.703Z,98052.55
2023-03-05T21:28:15.424Z,98055.66
2023-03-05T21:31:23.771Z,98051.34
2023-03-05T21:34:29.950Z,98050.05
2023-03-05T21:37:42.431Z,98048.39
2023-03-05T21:40:50.124Z,98051.23
2023-03-05T21:43:56.337Z,98046.52
2023-03-05T21:47:02.663Z,98042.11
2023-03-05T21:50:08.272Z,98040.16
2023-03-05T21:53:15.364Z,98043.06
2023-03-05T21:56:25.526Z,98042.72
2023-03-05T21:59:31.862Z,98039.89
2023-03-05T22:02:38.389Z,98038.25
2023-03-05T22:05:46.998Z,98030.92
2023-03-05T22:08:53.150Z,98025.40
2023-03-05T22:11:59.827Z,98025.02
2023-03-05T22:15:07.106Z,98022.83
2023-03-05T22:18:13.377Z,98023.62
2023-03-05T22:21:23.285Z,98020.63
2023-03-05T22:24:29.579Z,98023.13
2023-03-05T22:27:34.518Z,98020.10
2023-03-05T22:30:45.767Z,98017.25
2023-03-05T22:33:52.059Z,98013.40
2023-03-05T22:36:58.296Z,98011.21
2023-03-05T22:40:04.621Z,98013.73
2023-03-05T22:43:08.967Z,98014.16
2023-03-05T22:46:16.715Z,98010.25
2023-03-05T22:49:22.990Z,98011.00
2023-03-05T22:52:27.507Z,98003.55
2023-03-05T22:55:33.866Z,98004.58
2023-03-05T22:58:38.768Z,98007.46
2023-03-05T23:01:45.062Z,98005.48
2023-03-05T23:04:50.317Z,98009.80
2023-03-05T23:07:56.495Z,98011.16
2023-03-05T23:11:08.105Z,98008.22
2023-03-05T23:14:14.986Z,98009.81
2023-03-05T23:17:21.189Z,98001.88
2023-03-05T23:20:30.480Z,97999.29
2023-03-05T23:23:36.734Z,97996.21
2023-03-05T23:26:43.064Z,98000.55
2023-03-05T23:29:59.004Z,97996.98
2023-03-05T23:33:07.898Z,97989.16
2023-03-05T23:36:14.065Z,97988.25
2023-03-05T23:39:20.359Z,97991.79
2023-03-05T23:42:24.829Z,97989.95
2023-03-05T23:45:32.029Z,97989.99
2023-03-05T23:48:38.322Z,97992.02
2023-03-05T23:51:42.801Z,97993.89
2023-03-05T23:54:49.123Z,97993.92
2023-03-05T23:57:53.618Z,97992.91
